Time;durP1;ratioP1;P1;durP2;ratioP2;P2;SDS_P1;SDS_P2;PMS_P1;PMS_P2;Temp;Humidity;BMP_temperature;BMP_pressure;BME280_temperature;BME280_humidity;BME280_pressure;Samples;Min_cycle;Max_cycle;Signal;HPM_P1;HPM_P2
2023/01/01 00:00:06;;;;;;;7.67;5.07;;;13.20;99.90;;;;;;4592321;19;20006;-28
2023/01/01 00:01:41;;;;;;;5.63;4.10;;;13.20;99.90;;;;;;4592469;19;20516;-32
2023/01/01 00:03:12;;;;;;;6.80;4.10;;;13.20;99.90;;;;;;4592570;19;20011;-29
2023/01/01 00:04:43;;;;;;;7.95;4.75;;;13.20;99.90;;;;;;4591925;19;20186;-32
2023/01/01 00:06:14;;;;;;;6.43;4.20;;;13.20;99.90;;;;;;4591730;19;20017;-30
2023/01/01 00:07:47;;;;;;;6.70;4.83;;;13.20;99.90;;;;;;4591752;19;20033;-32
2023/01/01 00:11:09;;;;;;;6.73;4.63;;;13.20;99.90;;;;;;4591785;19;20483;-29
2023/01/01 00:12:40;;;;;;;8.55;4.10;;;13.20;99.90;;;;;;4591892;19;20361;-31
2023/01/01 00:14:12;;;;;;;6.00;4.07;;;13.20;99.90;;;;;;4592118;19;20028;-29
2023/01/01 00:15:43;;;;;;;6.93;4.35;;;13.20;99.90;;;;;;4591442;19;20022;-29
2023/01/01 00:17:16;;;;;;;7.35;4.03;;;13.20;99.90;;;;;;4591233;19;20021;-29
2023/01/01 00:18:48;;;;;;;7.20;3.75;;;13.20;99.90;;;;;;4590770;19;20013;-29
2023/01/01 00:20:19;;;;;;;6.03;4.10;;;13.20;99.90;;;;;;4591844;19;20499;-28
2023/01/01 00:21:50;;;;;;;6.95;4.75;;;13.20;99.90;;;;;;4591728;19;20093;-39
2023/01/01 00:23:21;;;;;;;6.70;4.88;;;13.20;99.90;;;;;;4591344;19;20018;-31
2023/01/01 00:24:52;;;;;;;6.85;4.75;;;13.20;99.90;;;;;;4592316;19;20013;-28
2023/01/01 00:26:24;;;;;;;;;;;13.20;99.90;;;;;;4593069;19;20059;-32
2023/01/01 00:27:55;;;;;;;7.72;4.90;;;13.10;99.90;;;;;;4591297;19;19945;-30
2023/01/01 00:29:28;;;;;;;7.10;4.60;;;13.20;99.90;;;;;;4590790;19;20460;-28
2023/01/01 00:31:06;;;;;;;7.33;5.10;;;13.20;99.90;;;;;;4591738;19;20006;-30
2023/01/01 00:34:24;;;;;;;9.00;6.53;;;13.20;99.90;;;;;;4590679;19;19995;-27
2023/01/01 00:35:55;;;;;;;8.60;5.80;;;13.20;99.90;;;;;;4591332;19;20019;-29
2023/01/01 00:37:27;;;;;;;8.82;6.75;;;13.20;99.90;;;;;;4591436;19;20447;-37
2023/01/01 00:39:01;;;;;;;8.07;5.63;;;13.20;99.90;;;;;;4589121;19;20401;-32
2023/01/01 00:40:32;;;;;;;10.53;6.63;;;13.20;99.90;;;;;;4590654;19;20011;-28
2023/01/01 00:42:03;;;;;;;9.48;6.38;;;13.20;99.90;;;;;;4591311;19;20011;-29
2023/01/01 00:43:35;;;;;;;9.07;6.37;;;13.20;99.90;;;;;;4591546;19;20006;-34
2023/01/01 00:45:08;;;;;;;8.03;5.73;;;13.20;99.90;;;;;;4589952;19;20103;-32
2023/01/01 00:46:40;;;;;;;7.47;5.60;;;13.20;99.90;;;;;;4589994;19;20038;-34
2023/01/01 00:48:12;;;;;;;8.67;5.63;;;13.30;99.90;;;;;;4590652;19;20019;-28
2023/01/01 00:49:44;;;;;;;9.05;5.78;;;13.30;99.90;;;;;;4590920;19;20010;-35
2023/01/01 00:51:16;;;;;;;8.50;5.40;;;13.30;99.90;;;;;;4591069;19;20015;-31
2023/01/01 00:52:47;;;;;;;8.20;4.90;;;13.30;99.90;;;;;;4589928;19;20388;-28
2023/01/01 00:54:20;;;;;;;8.15;5.38;;;13.30;99.90;;;;;;4588586;19;20022;-31
2023/01/01 00:55:55;;;;;;;6.93;5.00;;;13.20;99.90;;;;;;4590691;19;20088;-29
2023/01/01 00:57:26;;;;;;;8.40;4.93;;;13.20;99.90;;;;;;4591023;19;20010;-32
2023/01/01 00:58:59;;;;;;;8.87;5.33;;;13.20;99.90;;;;;;4589818;19;20025;-32
2023/01/01 01:00:30;;;;;;;8.13;4.70;;;13.20;99.90;;;;;;4590692;19;20011;-36
2023/01/01 01:02:02;;;;;;;7.95;5.47;;;13.20;99.90;;;;;;4589663;19;20019;-29
2023/01/01 01:03:37;;;;;;;8.32;5.90;;;13.20;99.90;;;;;;4590832;19;20014;-33
2023/01/01 01:05:09;;;;;;;7.63;5.00;;;13.20;99.90;;;;;;4589784;19;20021;-28
2023/01/01 01:06:40;;;;;;;9.23;5.95;;;13.20;99.90;;;;;;4589816;19;20025;-31
2023/01/01 01:08:11;;;;;;;7.85;5.40;;;13.20;99.90;;;;;;4590848;19;20070;-29
2023/01/01 01:09:44;;;;;;;7.30;4.83;;;13.30;99.90;;;;;;4590811;19;20014;-28
2023/01/01 01:11:21;;;;;;;9.60;5.07;;;13.30;99.90;;;;;;4590923;19;20022;-30
2023/01/01 01:12:52;;;;;;;8.77;5.43;;;13.30;99.90;;;;;;4590390;19;20011;-29
2023/01/01 01:14:23;;;;;;;7.65;5.50;;;13.30;99.90;;;;;;4591167;19;20022;-30
2023/01/01 01:15:55;;;;;;;6.10;4.90;;;13.30;99.90;;;;;;4590529;19;20010;-38
2023/01/01 01:17:26;;;;;;;8.15;5.00;;;13.30;99.90;;;;;;4590533;19;20087;-29
2023/01/01 01:18:59;;;;;;;7.27;5.00;;;13.30;99.90;;;;;;4589936;19;20030;-30
2023/01/01 01:20:30;;;;;;;7.00;4.82;;;13.30;99.90;;;;;;4591064;19;20028;-30
2023/01/01 01:22:01;;;;;;;8.82;5.15;;;13.30;99.90;;;;;;4589255;19;20022;-30
2023/01/01 01:23:34;;;;;;;7.28;4.70;;;13.40;99.90;;;;;;4590086;19;20034;-33
2023/01/01 01:25:06;;;;;;;9.52;5.20;;;13.30;99.90;;;;;;4590921;19;20025;-29
2023/01/01 01:26:39;;;;;;;6.43;4.77;;;13.40;99.90;;;;;;4591333;19;20002;-34
2023/01/01 01:28:10;;;;;;;5.87;4.37;;;13.40;99.90;;;;;;4588899;19;20025;-33
2023/01/01 01:29:43;;;;;;;9.10;5.07;;;13.40;99.90;;;;;;4588981;19;20022;-29
2023/01/01 01:31:20;;;;;;;7.63;4.60;;;13.30;99.90;;;;;;4590347;19;20078;-29
2023/01/01 01:32:52;;;;;;;7.10;4.57;;;13.40;99.90;;;;;;4589756;19;20452;-29
2023/01/01 05:42:37;;;;;;;6.50;3.90;;;13.60;99.90;;;;;;4560374;19;20015;-29
2023/01/01 05:44:10;;;;;;;;;;;13.70;99.90;;;;;;4590492;19;20032;-31
2023/01/01 05:45:41;;;;;;;6.60;3.83;;;13.70;99.90;;;;;;4588954;19;19978;-30
2023/01/01 05:47:14;;;;;;;6.28;3.63;;;13.70;99.90;;;;;;4591929;19;20456;-29
2023/01/01 05:48:46;;;;;;;7.22;3.67;;;13.80;99.90;;;;;;4589804;19;20018;-34
2023/01/01 05:50:18;;;;;;;7.57;4.57;;;13.80;99.90;;;;;;4589165;19;20461;-31
2023/01/01 05:51:49;;;;;;;6.13;3.97;;;13.90;99.90;;;;;;4589675;19;20015;-35
2023/01/01 05:53:21;;;;;;;6.68;3.95;;;13.90;99.90;;;;;;4590166;19;20073;-29
2023/01/01 05:54:52;;;;;;;6.15;4.10;;;13.90;99.90;;;;;;4587432;19;20014;-29
2023/01/01 05:56:24;;;;;;;5.55;3.83;;;13.80;99.90;;;;;;4589452;19;20011;-29
2023/01/01 05:57:56;;;;;;;6.57;3.60;;;13.80;99.90;;;;;;4591706;19;20017;-30
2023/01/01 05:59:27;;;;;;;5.97;3.92;;;13.90;99.90;;;;;;4591993;19;20018;-28
2023/01/01 06:01:05;;;;;;;8.27;4.70;;;13.90;99.90;;;;;;4589647;19;20415;-31
2023/01/01 06:02:38;;;;;;;5.72;3.50;;;13.90;99.90;;;;;;4590070;19;20007;-28
2023/01/01 06:04:09;;;;;;;6.30;3.67;;;14.00;99.90;;;;;;4590241;19;20038;-36
2023/01/01 06:05:40;;;;;;;7.53;3.90;;;14.00;99.90;;;;;;4589832;19;20035;-33
2023/01/01 06:07:11;;;;;;;;;;;13.90;99.90;;;;;;4590472;19;20013;-32
2023/01/01 06:08:55;;;;;;;6.30;4.20;;;13.90;99.90;;;;;;4590125;19;19911;-33
2023/01/01 06:10:26;;;;;;;6.97;4.03;;;13.90;99.90;;;;;;4590139;19;20010;-32
2023/01/01 06:11:57;;;;;;;6.32;4.85;;;13.90;99.90;;;;;;4589595;19;20010;-35
2023/01/01 06:13:29;;;;;;;8.02;4.60;;;13.80;99.90;;;;;;4587799;19;20111;-31
2023/01/01 06:15:00;;;;;;;6.18;4.25;;;13.80;99.90;;;;;;4589513;19;20015;-28
2023/01/01 06:16:32;;;;;;;6.68;4.40;;;13.80;99.90;;;;;;4589942;19;20018;-29
2023/01/01 06:18:04;;;;;;;5.55;3.85;;;13.80;99.90;;;;;;4586669;19;20014;-28
2023/01/01 06:19:35;;;;;;;5.93;3.80;;;13.80;99.90;;;;;;4588146;19;20015;-31
2023/01/01 06:21:08;;;;;;;7.43;4.45;;;13.70;99.90;;;;;;4588328;19;20017;-28
2023/01/01 06:22:40;;;;;;;6.35;4.05;;;13.80;99.90;;;;;;4588029;19;20019;-33
2023/01/01 06:24:12;;;;;;;6.05;4.00;;;13.80;99.90;;;;;;4590330;19;20017;-28
2023/01/01 06:25:44;;;;;;;7.18;4.55;;;13.70;99.90;;;;;;4589847;19;20027;-28
2023/01/01 06:27:16;;;;;;;5.80;4.18;;;13.70;99.90;;;;;;4589760;19;20010;-29
2023/01/01 06:28:47;;;;;;;6.25;4.35;;;13.70;99.90;;;;;;4589292;19;20024;-37
2023/01/01 06:30:18;;;;;;;7.22;4.93;;;13.70;99.90;;;;;;4587670;19;20017;-40
2023/01/01 06:31:49;;;;;;;7.40;4.25;;;13.70;99.90;;;;;;4588284;19;20580;-29
2023/01/01 06:33:20;;;;;;;6.57;4.22;;;13.70;99.90;;;;;;4587786;19;20009;-29
2023/01/01 06:34:51;;;;;;;5.90;4.47;;;13.80;99.90;;;;;;4587831;19;20353;-31
2023/01/01 06:36:23;;;;;;;6.68;4.03;;;13.70;99.90;;;;;;4587447;19;20007;-39
2023/01/01 06:37:55;;;;;;;7.05;4.88;;;13.80;99.90;;;;;;4590061;19;20022;-29
2023/01/01 06:39:26;;;;;;;7.68;4.40;;;13.80;99.90;;;;;;4589103;19;20014;-27
2023/01/01 06:40:59;;;;;;;6.93;4.38;;;13.70;99.90;;;;;;4589259;19;20070;-33
2023/01/01 06:42:30;;;;;;;7.28;4.60;;;13.70;99.90;;;;;;4587512;19;20056;-36
2023/01/01 06:44:02;;;;;;;8.68;4.57;;;13.70;99.90;;;;;;4588909;19;20011;-29
2023/01/01 06:45:34;;;;;;;7.65;4.32;;;13.70;99.90;;;;;;4589623;19;20022;-28
2023/01/01 06:47:05;;;;;;;6.93;4.68;;;13.80;99.90;;;;;;4587915;19;20015;-29
2023/01/01 06:48:40;;;;;;;7.45;4.32;;;13.80;99.90;;;;;;4589047;19;20339;-31
2023/01/01 06:50:11;;;;;;;;;;;13.80;99.90;;;;;;4588130;19;20031;-29
2023/01/01 06:51:42;;;;;;;7.53;4.85;;;13.80;99.90;;;;;;4587425;19;19919;-29
2023/01/01 06:53:15;;;;;;;7.47;4.85;;;13.80;99.90;;;;;;4589700;19;20011;-36
2023/01/01 06:54:47;;;;;;;;;;;13.70;99.90;;;;;;4594893;19;20018;-28
2023/01/01 06:56:18;;;;;;;6.53;4.10;;;13.80;99.90;;;;;;4593953;19;19923;-32
2023/01/01 06:57:51;;;;;;;8.43;4.47;;;13.70;99.90;;;;;;4593762;19;20014;-36
2023/01/01 06:59:23;;;;;;;7.35;4.88;;;13.70;99.90;;;;;;4593139;19;20011;-29
2023/01/01 07:01:22;;;;;;;5.93;4.15;;;13.70;99.90;;;;;;4592586;19;20014;-31
2023/01/01 07:02:53;;;;;;;7.15;4.00;;;13.80;99.90;;;;;;4593038;19;20011;-29
2023/01/01 07:04:26;;;;;;;7.50;3.92;;;13.90;99.90;;;;;;4593280;19;20014;-32
2023/01/01 07:05:58;;;;;;;5.93;3.97;;;14.00;99.90;;;;;;4592442;19;20395;-28
2023/01/01 07:07:30;;;;;;;7.40;4.60;;;14.00;99.90;;;;;;4590070;19;20022;-27
2023/01/01 07:09:02;;;;;;;7.43;4.45;;;14.00;99.90;;;;;;4591382;19;20014;-29
2023/01/01 07:10:33;;;;;;;8.32;5.40;;;14.00;99.90;;;;;;4591787;19;20456;-31
2023/01/01 07:12:04;;;;;;;5.05;3.17;;;13.90;99.90;;;;;;4592698;19;20010;-28
2023/01/01 07:13:37;;;;;;;4.65;3.00;;;13.90;99.90;;;;;;4593526;19;20014;-32
2023/01/01 07:15:08;;;;;;;7.32;4.32;;;14.10;99.90;;;;;;4593335;19;20014;-28
2023/01/01 07:16:39;;;;;;;7.57;4.00;;;14.20;99.90;;;;;;4593422;19;20034;-31
2023/01/01 07:18:10;;;;;;;5.28;3.25;;;14.30;99.90;;;;;;4592465;19;20049;-32
2023/01/01 07:19:41;;;;;;;5.65;3.67;;;14.40;99.90;;;;;;4592566;19;20010;-33
2023/01/01 07:21:26;;;;;;;6.38;4.10;;;14.40;99.90;;;;;;4592285;19;20006;-28
2023/01/01 07:23:01;;;;;;;5.60;3.72;;;14.40;99.90;;;;;;4591723;19;20037;-29
2023/01/01 07:24:31;;;;;;;5.35;3.15;;;14.50;99.90;;;;;;4590905;19;20019;-29
2023/01/01 07:26:03;;;;;;;5.60;3.63;;;14.50;99.90;;;;;;4591333;19;20025;-30
2023/01/01 07:27:34;;;;;;;6.22;4.18;;;14.60;99.90;;;;;;4593630;19;20015;-30
2023/01/01 07:29:07;;;;;;;6.45;4.18;;;14.60;99.90;;;;;;4592940;19;20034;-28
2023/01/01 07:30:38;;;;;;;6.93;3.67;;;14.50;99.90;;;;;;4592911;19;20329;-28
2023/01/01 07:32:12;;;;;;;7.20;4.20;;;14.40;99.90;;;;;;4592247;19;20026;-35
2023/01/01 07:33:44;;;;;;;5.97;4.10;;;14.30;99.90;;;;;;4590735;19;20357;-33
2023/01/01 07:35:16;;;;;;;7.82;3.75;;;14.30;99.90;;;;;;4590559;19;20048;-31
2023/01/01 07:36:47;;;;;;;;;;;14.30;99.90;;;;;;4591706;19;20396;-29
2023/01/01 07:38:18;;;;;;;6.95;3.85;;;14.10;99.90;;;;;;4590482;19;19918;-29
2023/01/01 07:39:49;;;;;;;5.22;3.55;;;14.10;99.90;;;;;;4590648;19;20027;-36
2023/01/01 07:41:21;;;;;;;5.97;3.88;;;14.10;99.90;;;;;;4590198;19;20025;-30
2023/01/01 08:04:00;;;;;;;5.93;3.72;;;14.20;99.90;;;;;;4590558;19;20010;-33
2023/01/01 08:05:32;;;;;;;5.82;3.75;;;14.10;99.90;;;;;;4591928;19;20025;-29
2023/01/01 08:07:04;;;;;;;5.90;3.80;;;14.30;99.90;;;;;;4591096;19;20066;-28
2023/01/01 08:08:35;;;;;;;7.20;4.63;;;14.30;99.90;;;;;;4592747;19;20023;-36
2023/01/01 08:10:07;;;;;;;;;;;14.20;99.90;;;;;;4591294;19;20031;-28
2023/01/01 08:11:39;;;;;;;6.75;3.83;;;14.20;99.90;;;;;;4591550;19;20258;-35
2023/01/01 08:13:11;;;;;;;7.38;4.43;;;14.10;99.90;;;;;;4591564;19;20014;-38
2023/01/01 08:14:42;;;;;;;6.82;4.03;;;14.10;99.90;;;;;;4592630;19;20014;-32
2023/01/01 08:16:16;;;;;;;9.52;3.90;;;14.10;99.90;;;;;;4591907;19;20018;-29
2023/01/01 08:17:47;;;;;;;6.65;3.72;;;14.10;99.90;;;;;;4591101;19;20066;-30
2023/01/01 08:19:18;;;;;;;6.88;4.10;;;14.10;99.90;;;;;;4591460;19;20492;-32
2023/01/01 08:20:49;;;;;;;9.20;4.00;;;14.00;99.90;;;;;;4591323;19;20094;-35
2023/01/01 08:22:22;;;;;;;7.20;3.20;;;14.00;99.90;;;;;;4591770;19;20011;-32
2023/01/01 08:23:54;;;;;;;8.38;3.70;;;14.00;99.90;;;;;;4591103;19;20011;-29
2023/01/01 08:25:26;;;;;;;7.30;4.45;;;14.00;99.90;;;;;;4590851;19;20034;-30
2023/01/01 08:26:57;;;;;;;7.28;4.10;;;14.30;99.90;;;;;;4591629;19;20023;-33
2023/01/01 08:28:28;;;;;;;5.47;4.22;;;14.60;99.90;;;;;;4590720;19;20011;-34
2023/01/01 08:29:59;;;;;;;7.35;4.63;;;15.30;99.90;;;;;;4590897;19;20677;-29
2023/01/01 08:31:30;;;;;;;5.47;4.07;;;15.90;99.90;;;;;;4588846;19;20048;-29
2023/01/01 08:33:01;;;;;;;6.32;4.38;;;16.20;99.90;;;;;;4591097;19;20073;-30
2023/01/01 08:34:32;;;;;;;6.47;4.30;;;16.10;99.90;;;;;;4590692;19;20479;-29
2023/01/01 08:36:05;;;;;;;8.45;4.13;;;16.30;99.90;;;;;;4590285;19;20015;-29
2023/01/01 08:37:36;;;;;;;5.72;4.05;;;16.30;99.90;;;;;;4591423;19;20091;-36
2023/01/01 08:39:07;;;;;;;6.70;4.05;;;16.30;99.90;;;;;;4590528;19;20423;-34
2023/01/01 08:40:38;;;;;;;5.28;3.60;;;16.30;99.90;;;;;;4592072;19;20022;-31
2023/01/01 08:42:10;;;;;;;;;;;16.30;99.90;;;;;;4591397;19;20019;-30
2023/01/01 08:43:41;;;;;;;6.43;3.90;;;16.60;99.90;;;;;;4591346;19;19952;-36
2023/01/01 08:45:12;;;;;;;8.45;4.38;;;16.60;99.90;;;;;;4590630;19;20378;-33
2023/01/01 08:46:44;;;;;;;6.63;3.75;;;16.40;99.90;;;;;;4590642;19;20078;-29
2023/01/01 08:48:15;;;;;;;8.23;3.70;;;16.20;99.90;;;;;;4591266;19;20029;-30
2023/01/01 08:49:46;;;;;;;6.20;4.10;;;16.10;99.90;;;;;;4590033;19;20020;-30
2023/01/01 08:51:17;;;;;;;;;;;16.20;99.90;;;;;;4592236;19;20014;-34
2023/01/01 08:52:48;;;;;;;6.07;3.60;;;15.90;99.90;;;;;;4591006;19;20056;-34
2023/01/01 08:54:19;;;;;;;4.05;2.90;;;15.60;99.90;;;;;;4591702;19;20022;-31
2023/01/01 08:56:17;;;;;;;7.88;3.65;;;15.40;99.90;;;;;;4590653;19;20077;-30
2023/01/01 08:57:48;;;;;;;6.93;3.65;;;15.10;99.90;;;;;;4589733;19;20018;-29
2023/01/01 08:59:19;;;;;;;6.70;3.90;;;15.00;99.90;;;;;;4590520;19;20010;-30
2023/01/01 09:00:52;;;;;;;8.02;5.50;;;15.00;99.90;;;;;;4590773;19;20074;-31
2023/01/01 09:02:23;;;;;;;8.10;4.85;;;14.90;99.90;;;;;;4590954;19;20010;-30
2023/01/01 09:03:54;;;;;;;8.02;4.05;;;14.70;99.90;;;;;;4590456;19;20702;-30
2023/01/01 09:06:59;;;;;;;8.35;4.28;;;14.50;99.90;;;;;;4590219;19;20014;-28
2023/01/01 09:08:31;;;;;;;10.63;5.13;;;14.60;99.90;;;;;;4589212;19;20018;-32
2023/01/01 09:10:03;;;;;;;8.68;4.38;;;15.10;99.90;;;;;;4591372;19;20476;-32
2023/01/01 09:11:34;;;;;;;;;;;15.90;99.90;;;;;;4591517;19;20473;-27
2023/01/01 09:13:05;;;;;;;5.10;3.47;;;16.20;99.90;;;;;;4588841;19;20246;-29
2023/01/01 09:14:37;;;;;;;7.60;4.22;;;16.60;99.90;;;;;;4588852;19;20368;-28
2023/01/01 09:16:08;;;;;;;4.53;2.92;;;16.90;99.90;;;;;;4588244;19;20371;-25
2023/01/01 09:17:39;;;;;;;5.60;2.95;;;17.20;99.90;;;;;;4590076;19;20014;-29
2023/01/01 09:19:11;;;;;;;7.20;3.13;;;17.30;99.90;;;;;;4588401;19;20014;-29
2023/01/01 09:20:42;;;;;;;9.13;3.00;;;17.40;99.90;;;;;;4591038;19;20007;-26
2023/01/01 09:22:13;;;;;;;5.22;4.15;;;17.50;99.90;;;;;;4589447;19;20014;-26
2023/01/01 09:23:45;;;;;;;6.53;3.95;;;18.00;99.90;;;;;;4590692;19;20006;-28
2023/01/01 09:25:17;;;;;;;6.47;3.25;;;18.40;99.90;;;;;;4590224;19;20019;-31
2023/01/01 09:26:49;;;;;;;4.53;3.47;;;18.80;99.90;;;;;;4590518;19;20014;-27
2023/01/01 09:28:20;;;;;;;5.75;3.50;;;19.10;99.90;;;;;;4591332;19;20010;-26
2023/01/01 09:29:52;;;;;;;4.15;2.80;;;19.00;99.90;;;;;;4586677;19;20014;-29
2023/01/01 09:31:23;;;;;;;8.77;2.78;;;18.50;99.90;;;;;;4589982;19;20516;-28
2023/01/01 09:32:54;;;;;;;;;;;18.20;99.90;;;;;;4589939;19;20050;-26
2023/01/01 09:34:25;;;;;;;5.57;2.67;;;18.10;99.90;;;;;;4590377;19;19970;-32
2023/01/01 09:36:14;;;;;;;4.70;3.08;;;17.70;99.90;;;;;;4589442;19;20021;-26
2023/01/01 09:37:46;;;;;;;5.80;3.75;;;16.80;99.90;;;;;;4588662;19;20053;-31
2023/01/01 09:39:17;;;;;;;6.35;4.00;;;16.10;99.90;;;;;;4589713;19;20015;-26
2023/01/01 09:40:57;;;;;;;6.78;3.17;;;15.50;99.90;;;;;;4590495;19;20355;-31
2023/01/01 09:42:37;;;;;;;8.52;3.53;;;15.20;99.90;;;;;;4589974;19;20014;-28
2023/01/01 09:44:41;;;;;;;7.10;3.60;;;15.00;99.90;;;;;;4588881;19;20071;-33
2023/01/01 09:46:12;;;;;;;6.95;3.92;;;14.80;99.90;;;;;;4587282;19;20020;-28
2023/01/01 09:47:48;;;;;;;5.40;3.17;;;14.70;99.90;;;;;;4588271;19;20007;-27
2023/01/01 09:49:40;;;;;;;9.00;3.25;;;14.50;99.90;;;;;;4587454;19;20026;-26
2023/01/01 09:51:15;;;;;;;6.57;3.60;;;14.50;99.90;;;;;;4587022;19;20018;-27
2023/01/01 09:52:54;;;;;;;8.30;3.10;;;14.50;99.90;;;;;;4588601;19;20026;-26
2023/01/01 09:54:28;;;;;;;7.47;3.67;;;14.40;99.90;;;;;;4587865;19;20025;-28
2023/01/01 09:56:00;;;;;;;6.85;3.13;;;14.30;99.90;;;;;;4588480;19;20006;-28
2023/01/01 09:57:32;;;;;;;7.03;3.80;;;14.30;99.90;;;;;;4587425;19;20014;-29
2023/01/01 09:59:06;;;;;;;8.82;3.47;;;14.20;99.90;;;;;;4586204;19;20014;-27
2023/01/01 10:00:42;;;;;;;7.82;4.50;;;14.20;99.90;;;;;;4588126;19;20006;-34
2023/01/01 10:02:21;;;;;;;7.65;3.55;;;14.10;99.90;;;;;;4587596;19;20490;-31
2023/01/01 10:04:16;;;;;;;7.05;3.38;;;14.10;99.90;;;;;;4588162;19;20477;-28
2023/01/01 10:16:42;;;;;;;9.00;3.58;;;13.90;99.90;;;;;;4587865;19;20011;-32
2023/01/01 10:18:17;;;;;;;7.93;2.97;;;13.90;99.90;;;;;;4587860;19;20551;-27
2023/01/01 10:19:55;;;;;;;7.00;3.80;;;13.80;99.90;;;;;;4587954;19;20018;-26
2023/01/01 10:21:31;;;;;;;8.57;4.50;;;13.90;99.90;;;;;;4586854;19;20011;-32
2023/01/01 10:23:14;;;;;;;6.18;3.03;;;14.00;99.90;;;;;;4586925;19;20496;-29
2023/01/01 10:24:57;;;;;;;9.18;3.28;;;13.90;99.90;;;;;;4589049;19;20517;-34
2023/01/01 10:26:29;;;;;;;5.95;2.83;;;13.90;99.90;;;;;;4589375;19;20023;-28
2023/01/01 10:28:04;;;;;;;8.80;4.18;;;13.90;99.90;;;;;;4593673;19;20042;-28
2023/01/01 10:29:44;;;;;;;10.00;4.03;;;13.80;99.90;;;;;;4592751;19;20476;-26
2023/01/01 10:31:33;;;;;;;6.97;4.03;;;13.70;99.90;;;;;;4592116;19;20030;-34
2023/01/01 10:33:07;;;;;;;8.98;3.92;;;13.60;99.90;;;;;;4594229;19;20035;-29
2023/01/01 10:34:39;;;;;;;6.95;3.22;;;13.70;99.90;;;;;;4592621;19;20467;-27
2023/01/01 10:36:12;;;;;;;8.63;4.00;;;13.70;99.90;;;;;;4592009;19;20010;-29
2023/01/01 10:37:44;;;;;;;7.82;3.42;;;13.80;99.90;;;;;;4593408;19;20017;-29
2023/01/01 10:39:15;;;;;;;8.15;3.60;;;13.70;99.90;;;;;;4591444;19;20078;-31
2023/01/01 10:40:48;;;;;;;6.88;3.40;;;13.70;99.90;;;;;;4593521;19;20018;-28
2023/01/01 10:42:20;;;;;;;5.93;3.17;;;13.70;99.90;;;;;;4591233;19;20018;-31
2023/01/01 10:43:53;;;;;;;7.37;3.03;;;13.70;99.90;;;;;;4593782;19;20023;-27
2023/01/01 10:45:37;;;;;;;8.45;3.90;;;13.60;99.90;;;;;;4593485;19;20184;-27
2023/01/01 10:47:29;;;;;;;5.03;3.03;;;13.50;99.90;;;;;;4592057;19;20054;-26
2023/01/01 10:49:05;;;;;;;7.53;3.30;;;13.40;99.90;;;;;;4593797;19;20018;-31
2023/01/01 10:50:51;;;;;;;7.93;3.70;;;13.50;99.90;;;;;;4591978;19;20037;-29
2023/01/01 10:52:33;;;;;;;6.30;3.58;;;13.50;99.90;;;;;;4591911;19;20011;-29
2023/01/01 10:54:04;;;;;;;6.88;3.53;;;13.50;99.90;;;;;;4594244;19;20688;-28
2023/01/01 10:55:35;;;;;;;7.47;2.90;;;13.50;99.90;;;;;;4593509;19;20027;-27
2023/01/01 10:57:16;;;;;;;6.55;2.60;;;13.60;99.90;;;;;;4592400;19;20026;-27
2023/01/01 10:58:54;;;;;;;4.23;2.63;;;13.60;99.90;;;;;;4591238;19;20439;-31
2023/01/01 11:00:26;;;;;;;5.68;2.97;;;13.70;99.90;;;;;;4592005;19;20014;-29
2023/01/01 11:02:20;;;;;;;6.38;3.38;;;13.80;99.90;;;;;;4594143;19;20496;-27
2023/01/01 11:04:19;;;;;;;7.00;3.50;;;13.70;99.90;;;;;;4591511;19;20089;-26
2023/01/01 11:06:09;;;;;;;8.60;3.70;;;13.60;99.90;;;;;;4592437;19;20018;-26
2023/01/01 11:07:40;;;;;;;6.57;3.75;;;13.50;99.90;;;;;;4593277;19;20007;-25
2023/01/01 11:09:27;;;;;;;7.25;3.70;;;13.60;99.90;;;;;;4592707;19;20021;-27
2023/01/01 11:10:59;;;;;;;5.90;2.88;;;13.60;99.90;;;;;;4591698;19;20014;-34
2023/01/01 11:12:34;;;;;;;7.27;3.30;;;13.60;99.90;;;;;;4592604;19;20017;-27
2023/01/01 11:14:11;;;;;;;7.13;3.47;;;13.60;99.90;;;;;;4591487;19;20362;-28
2023/01/01 11:22:51;;;;;;;8.07;3.17;;;13.40;99.90;;;;;;4592895;19;20030;-27
2023/01/01 11:24:24;;;;;;;;;;;13.40;99.90;;;;;;4593123;19;20014;-27
2023/01/01 11:26:23;;;;;;;7.03;4.32;;;13.50;99.90;;;;;;4591873;19;19921;-26
2023/01/01 11:28:33;;;;;;;6.53;3.30;;;13.50;99.90;;;;;;4591772;19;20029;-27
2023/01/01 11:30:24;;;;;;;5.90;3.53;;;13.60;99.90;;;;;;4589078;19;20023;-30
2023/01/01 11:31:57;;;;;;;6.55;3.28;;;13.60;99.90;;;;;;4591322;19;20054;-31
2023/01/01 11:33:30;;;;;;;11.13;4.47;;;13.50;99.90;;;;;;4590150;19;20022;-28
2023/01/01 11:35:05;;;;;;;7.25;4.53;;;13.50;99.90;;;;;;4589495;19;20025;-32
2023/01/01 11:36:36;;;;;;;10.53;4.60;;;13.50;99.90;;;;;;4590620;19;20342;-26
2023/01/01 11:38:16;;;;;;;7.35;4.38;;;13.40;99.90;;;;;;4589081;19;20023;-27
2023/01/01 11:39:49;;;;;;;8.37;4.17;;;13.40;99.90;;;;;;4590463;19;20010;-26
2023/01/01 11:41:20;;;;;;;6.63;3.43;;;13.40;99.90;;;;;;4589485;19;20403;-26
2023/01/01 11:42:57;;;;;;;7.63;3.60;;;13.40;99.90;;;;;;4588902;19;20010;-28
2023/01/01 11:44:28;;;;;;;7.33;3.90;;;13.40;99.90;;;;;;4590764;19;20066;-29
2023/01/01 11:45:59;;;;;;;7.53;4.15;;;13.40;99.90;;;;;;4589595;19;20010;-28
2023/01/01 11:47:38;;;;;;;7.40;3.50;;;13.40;99.90;;;;;;4591069;19;20457;-27
2023/01/01 11:49:21;;;;;;;8.27;4.10;;;13.40;99.90;;;;;;4589692;19;20015;-26
2023/01/01 11:51:05;;;;;;;7.43;4.47;;;13.40;99.90;;;;;;4589928;19;20018;-26
2023/01/01 11:52:38;;;;;;;7.90;4.37;;;13.50;99.90;;;;;;4590460;19;20583;-29
2023/01/01 11:54:31;;;;;;;9.77;4.60;;;13.50;99.90;;;;;;4589707;19;20025;-30
2023/01/01 11:56:12;;;;;;;8.07;4.23;;;13.60;99.90;;;;;;4590935;19;20014;-26
2023/01/01 11:58:10;;;;;;;7.80;4.05;;;13.70;99.90;;;;;;4590653;19;20031;-30
2023/01/01 11:59:50;;;;;;;7.72;4.25;;;13.70;99.90;;;;;;4589777;19;20011;-27
2023/01/01 12:01:44;;;;;;;10.02;4.78;;;13.90;99.90;;;;;;4591464;19;20498;-31
2023/01/01 12:03:23;;;;;;;8.82;4.82;;;14.10;99.90;;;;;;4592148;19;20014;-27
2023/01/01 12:05:07;;;;;;;7.57;4.55;;;14.20;99.90;;;;;;4590878;19;20011;-30
2023/01/01 12:06:58;;;;;;;7.65;4.93;;;14.40;99.90;;;;;;4591049;19;20099;-28
2023/01/01 12:08:39;;;;;;;8.18;3.95;;;14.30;99.90;;;;;;4591621;19;20022;-27
2023/01/01 12:10:16;;;;;;;7.22;3.80;;;14.50;99.90;;;;;;4590914;19;19999;-26
2023/01/01 12:11:51;;;;;;;8.15;3.83;;;14.60;99.90;;;;;;4590942;19;20010;-31
2023/01/01 12:13:26;;;;;;;7.38;4.40;;;14.60;99.90;;;;;;4591881;19;20010;-30
2023/01/01 12:15:24;;;;;;;6.75;3.70;;;14.60;99.90;;;;;;4590596;19;20014;-31
2023/01/01 12:17:04;;;;;;;6.93;3.75;;;14.50;99.90;;;;;;4592569;19;19999;-26
2023/01/01 12:18:47;;;;;;;8.00;4.38;;;14.50;99.90;;;;;;4590801;19;20046;-27
2023/01/01 12:20:28;;;;;;;6.95;3.40;;;14.50;99.90;;;;;;4590562;19;20082;-27
2023/01/01 12:21:59;;;;;;;10.80;4.20;;;14.40;99.90;;;;;;4590740;19;20002;-26
2023/01/01 13:21:52;;;;;;;6.22;3.33;;;15.50;99.90;;;;;;4587599;19;20131;-28
2023/01/01 13:23:30;;;;;;;;;;;15.70;99.90;;;;;;4588928;19;20015;-28
2023/01/01 13:25:21;;;;;;;7.60;4.20;;;15.90;99.90;;;;;;4588231;19;19919;-31
2023/01/01 13:26:52;;;;;;;7.22;4.30;;;15.60;99.90;;;;;;4587409;19;20010;-27
2023/01/01 13:28:24;;;;;;;6.75;4.18;;;15.40;99.90;;;;;;4587698;19;20705;-28
2023/01/01 13:29:55;;;;;;;;;;;15.20;99.90;;;;;;4590524;19;20018;-26
2023/01/01 13:31:39;;;;;;;7.68;4.97;;;15.10;99.90;;;;;;4590571;19;19923;-29
2023/01/01 13:33:30;;;;;;;7.78;5.15;;;14.90;99.90;;;;;;4590460;19;20010;-28
2023/01/01 13:35:14;;;;;;;9.77;5.32;;;14.80;99.90;;;;;;4591248;19;20084;-28
2023/01/01 13:36:45;;;;;;;9.70;6.38;;;14.80;99.90;;;;;;4590052;19;20015;-29
2023/01/01 13:38:49;;;;;;;8.73;5.25;;;14.70;99.90;;;;;;4589484;19;20042;-25
2023/01/01 13:40:30;;;;;;;10.23;6.03;;;14.70;99.90;;;;;;4588705;19;20465;-30
2023/01/01 13:42:01;;;;;;;9.23;5.82;;;14.70;99.90;;;;;;4588707;19;20009;-28
2023/01/01 13:43:32;;;;;;;7.88;4.80;;;14.70;99.90;;;;;;4590932;19;20025;-27
2023/01/01 13:45:07;;;;;;;9.77;4.57;;;14.70;99.90;;;;;;4589295;19;20006;-33
2023/01/01 13:46:42;;;;;;;8.57;5.07;;;14.70;99.90;;;;;;4588453;19;20014;-26
2023/01/01 13:48:33;;;;;;;8.52;5.40;;;14.80;99.90;;;;;;4588868;19;20435;-26
2023/01/01 13:50:31;;;;;;;8.20;5.57;;;14.90;99.90;;;;;;4588303;19;20011;-28
2023/01/01 13:52:26;;;;;;;9.45;6.38;;;14.90;99.90;;;;;;4587579;19;20440;-33
2023/01/01 13:54:38;;;;;;;10.55;5.72;;;14.90;99.90;;;;;;4588071;19;20006;-26
2023/01/01 13:56:31;;;;;;;12.98;8.30;;;15.00;99.90;;;;;;4586077;19;20022;-25
2023/01/01 13:58:23;;;;;;;12.40;7.22;;;15.10;99.90;;;;;;4585897;19;20414;-26
2023/01/01 14:00:01;;;;;;;9.80;5.75;;;15.10;99.90;;;;;;4586035;19;20106;-32
2023/01/01 14:01:47;;;;;;;10.73;5.65;;;15.30;99.90;;;;;;4588708;19;20070;-26
2023/01/01 14:03:19;;;;;;;9.57;5.20;;;15.50;99.90;;;;;;4592554;19;20014;-27
2023/01/01 14:05:01;;;;;;;6.93;4.53;;;15.40;99.90;;;;;;4592506;19;20058;-31
2023/01/01 14:06:38;;;;;;;8.20;4.40;;;15.10;99.90;;;;;;4592461;19;20113;-28
2023/01/01 14:08:31;;;;;;;8.48;5.05;;;14.90;99.90;;;;;;4591913;19;20069;-27